sensor_id;sensor_type;location;lat;lon;timestamp;temperature;humidity
46319;DHT22;32042;50.916;2.926;2022-11-20T00:00:49;5.70;99.90
46319;DHT22;32042;50.916;2.926;2022-11-20T00:03:15;5.60;99.90
46319;DHT22;32042;50.916;2.926;2022-11-20T00:05:40;5.70;99.90
46319;DHT22;32042;50.916;2.926;2022-11-20T00:08:06;5.70;99.90
46319;DHT22;32042;50.916;2.926;2022-11-20T00:10:32;5.80;99.90
46319;DHT22;32042;50.916;2.926;2022-11-20T00:13:01;5.80;99.90
46319;DHT22;32042;50.916;2.926;2022-11-20T00:15:26;5.90;99.90
46319;DHT22;32042;50.916;2.926;2022-11-20T00:17:52;5.80;99.90
46319;DHT22;32042;50.916;2.926;2022-11-20T00:20:18;5.80;99.90
46319;DHT22;32042;50.916;2.926;2022-11-20T00:22:44;5.90;99.90
46319;DHT22;32042;50.916;2.926;2022-11-20T00:25:09;5.80;99.90
46319;DHT22;32042;50.916;2.926;2022-11-20T00:27:35;5.80;99.90
46319;DHT22;32042;50.916;2.926;2022-11-20T00:30:01;5.90;99.90
46319;DHT22;32042;50.916;2.926;2022-11-20T00:32:26;5.90;99.90
46319;DHT22;32042;50.916;2.926;2022-11-20T00:34:52;5.90;99.90
46319;DHT22;32042;50.916;2.926;2022-11-20T00:37:18;5.80;99.90
46319;DHT22;32042;50.916;2.926;2022-11-20T00:39:43;5.80;99.90
46319;DHT22;32042;50.916;2.926;2022-11-20T00:42:09;5.80;99.90
46319;DHT22;32042;50.916;2.926;2022-11-20T00:44:35;5.80;99.90
46319;DHT22;32042;50.916;2.926;2022-11-20T00:47:00;5.80;99.90
46319;DHT22;32042;50.916;2.926;2022-11-20T00:49:26;5.80;99.90
46319;DHT22;32042;50.916;2.926;2022-11-20T00:51:51;5.80;99.90
46319;DHT22;32042;50.916;2.926;2022-11-20T00:54:17;5.80;99.90
46319;DHT22;32042;50.916;2.926;2022-11-20T00:56:43;5.80;99.90
46319;DHT22;32042;50.916;2.926;2022-11-20T00:59:09;5.80;99.90
46319;DHT22;32042;50.916;2.926;2022-11-20T01:01:36;5.80;99.90
46319;DHT22;32042;50.916;2.926;2022-11-20T01:04:02;5.80;99.90
46319;DHT22;32042;50.916;2.926;2022-11-20T01:06:33;5.80;99.90
46319;DHT22;32042;50.916;2.926;2022-11-20T01:09:05;5.70;99.90
46319;DHT22;32042;50.916;2.926;2022-11-20T01:11:36;5.70;99.90
46319;DHT22;32042;50.916;2.926;2022-11-20T01:14:03;5.70;99.90
46319;DHT22;32042;50.916;2.926;2022-11-20T01:16:31;5.70;99.90
46319;DHT22;32042;50.916;2.926;2022-11-20T01:19:00;5.70;99.90
46319;DHT22;32042;50.916;2.926;2022-11-20T01:21:40;5.60;99.90
46319;DHT22;32042;50.916;2.926;2022-11-20T01:24:07;5.70;99.90
46319;DHT22;32042;50.916;2.926;2022-11-20T01:26:35;5.70;99.90
46319;DHT22;32042;50.916;2.926;2022-11-20T01:29:02;5.60;99.90
46319;DHT22;32042;50.916;2.926;2022-11-20T01:31:37;5.70;99.90
46319;DHT22;32042;50.916;2.926;2022-11-20T01:34:09;5.70;99.90
46319;DHT22;32042;50.916;2.926;2022-11-20T01:36:36;5.80;99.90
46319;DHT22;32042;50.916;2.926;2022-11-20T01:39:06;5.80;99.90
46319;DHT22;32042;50.916;2.926;2022-11-20T01:41:33;5.80;99.90
46319;DHT22;32042;50.916;2.926;2022-11-20T01:44:21;5.80;99.90
46319;DHT22;32042;50.916;2.926;2022-11-20T01:47:02;5.80;99.90
46319;DHT22;32042;50.916;2.926;2022-11-20T01:52:03;5.80;99.90
46319;DHT22;32042;50.916;2.926;2022-11-20T01:54:35;5.80;99.90
46319;DHT22;32042;50.916;2.926;2022-11-20T01:57:06;5.80;99.90
46319;DHT22;32042;50.916;2.926;2022-11-20T01:59:35;5.80;99.90
46319;DHT22;32042;50.916;2.926;2022-11-20T02:02:03;5.80;99.90
46319;DHT22;32042;50.916;2.926;2022-11-20T02:04:28;5.80;99.90
46319;DHT22;32042;50.916;2.926;2022-11-20T02:06:59;5.80;99.90
46319;DHT22;32042;50.916;2.926;2022-11-20T02:09:26;5.80;99.90
46319;DHT22;32042;50.916;2.926;2022-11-20T02:11:53;5.80;99.90
46319;DHT22;32042;50.916;2.926;2022-11-20T02:14:19;5.80;99.90
46319;DHT22;32042;50.916;2.926;2022-11-20T02:16:48;5.70;99.90
46319;DHT22;32042;50.916;2.926;2022-11-20T02:19:23;5.80;99.90
46319;DHT22;32042;50.916;2.926;2022-11-20T02:22:02;5.80;99.90
46319;DHT22;32042;50.916;2.926;2022-11-20T02:24:28;5.80;99.90
46319;DHT22;32042;50.916;2.926;2022-11-20T02:27:01;5.80;99.90
46319;DHT22;32042;50.916;2.926;2022-11-20T02:29:58;5.80;99.90
46319;DHT22;32042;50.916;2.926;2022-11-20T02:32:28;5.80;99.90
46319;DHT22;32042;50.916;2.926;2022-11-20T02:34:55;5.80;99.90
46319;DHT22;32042;50.916;2.926;2022-11-20T02:37:26;5.80;99.90
46319;DHT22;32042;50.916;2.926;2022-11-20T02:39:57;5.80;99.90
46319;DHT22;32042;50.916;2.926;2022-11-20T02:42:23;5.90;99.90
46319;DHT22;32042;50.916;2.926;2022-11-20T02:44:50;5.90;99.90
46319;DHT22;32042;50.916;2.926;2022-11-20T02:47:16;5.90;99.90
46319;DHT22;32042;50.916;2.926;2022-11-20T02:49:43;5.90;99.90
46319;DHT22;32042;50.916;2.926;2022-11-20T02:52:10;5.80;99.90
46319;DHT22;32042;50.916;2.926;2022-11-20T02:54:36;5.90;99.90
46319;DHT22;32042;50.916;2.926;2022-11-20T02:57:01;5.90;99.90
46319;DHT22;32042;50.916;2.926;2022-11-20T02:59:27;5.90;99.90
46319;DHT22;32042;50.916;2.926;2022-11-20T03:01:52;5.90;99.90
46319;DHT22;32042;50.916;2.926;2022-11-20T03:04:18;5.90;99.90
46319;DHT22;32042;50.916;2.926;2022-11-20T03:06:44;5.90;99.90
46319;DHT22;32042;50.916;2.926;2022-11-20T03:09:09;5.90;99.90
46319;DHT22;32042;50.916;2.926;2022-11-20T03:11:35;5.90;99.90
46319;DHT22;32042;50.916;2.926;2022-11-20T03:14:04;5.80;99.90
46319;DHT22;32042;50.916;2.926;2022-11-20T03:16:31;5.80;99.90
46319;DHT22;32042;50.916;2.926;2022-11-20T03:18:57;5.80;99.90
46319;DHT22;32042;50.916;2.926;2022-11-20T03:21:22;5.80;99.90
46319;DHT22;32042;50.916;2.926;2022-11-20T03:23:48;5.80;99.90
46319;DHT22;32042;50.916;2.926;2022-11-20T03:26:19;5.80;99.90
46319;DHT22;32042;50.916;2.926;2022-11-20T03:28:57;5.80;99.90
46319;DHT22;32042;50.916;2.926;2022-11-20T03:31:34;5.90;99.90
46319;DHT22;32042;50.916;2.926;2022-11-20T03:34:01;5.90;99.90
46319;DHT22;32042;50.916;2.926;2022-11-20T03:36:27;5.80;99.90
46319;DHT22;32042;50.916;2.926;2022-11-20T03:38:54;5.80;99.90
46319;DHT22;32042;50.916;2.926;2022-11-20T03:41:23;5.80;99.90
46319;DHT22;32042;50.916;2.926;2022-11-20T03:43:53;5.80;99.90
46319;DHT22;32042;50.916;2.926;2022-11-20T03:46:20;5.80;99.90
46319;DHT22;32042;50.916;2.926;2022-11-20T03:48:46;5.70;99.90
46319;DHT22;32042;50.916;2.926;2022-11-20T03:51:17;5.70;99.90
46319;DHT22;32042;50.916;2.926;2022-11-20T03:53:45;5.70;99.90
46319;DHT22;32042;50.916;2.926;2022-11-20T03:56:13;5.70;99.90
46319;DHT22;32042;50.916;2.926;2022-11-20T03:58:39;5.60;99.90
46319;DHT22;32042;50.916;2.926;2022-11-20T04:01:11;5.60;99.90
46319;DHT22;32042;50.916;2.926;2022-11-20T04:03:38;5.50;99.90
46319;DHT22;32042;50.916;2.926;2022-11-20T04:06:10;5.50;99.90
46319;DHT22;32042;50.916;2.926;2022-11-20T04:08:36;5.50;99.90
46319;DHT22;32042;50.916;2.926;2022-11-20T04:11:13;5.50;99.90
46319;DHT22;32042;50.916;2.926;2022-11-20T04:13:40;5.60;99.90
46319;DHT22;32042;50.916;2.926;2022-11-20T04:16:07;5.60;99.90
46319;DHT22;32042;50.916;2.926;2022-11-20T04:18:33;5.60;99.90
46319;DHT22;32042;50.916;2.926;2022-11-20T04:21:00;5.60;99.90
46319;DHT22;32042;50.916;2.926;2022-11-20T04:23:26;5.60;99.90
46319;DHT22;32042;50.916;2.926;2022-11-20T04:25:52;5.60;99.90
46319;DHT22;32042;50.916;2.926;2022-11-20T04:28:18;5.60;99.90
46319;DHT22;32042;50.916;2.926;2022-11-20T04:30:44;5.60;99.90
46319;DHT22;32042;50.916;2.926;2022-11-20T04:33:09;5.60;99.90
46319;DHT22;32042;50.916;2.926;2022-11-20T04:35:36;5.60;99.90
46319;DHT22;32042;50.916;2.926;2022-11-20T04:38:02;5.70;99.90
46319;DHT22;32042;50.916;2.926;2022-11-20T04:40:28;5.70;99.90
46319;DHT22;32042;50.916;2.926;2022-11-20T04:42:54;5.70;99.90
46319;DHT22;32042;50.916;2.926;2022-11-20T04:45:21;5.70;99.90
46319;DHT22;32042;50.916;2.926;2022-11-20T04:47:47;5.70;99.90
46319;DHT22;32042;50.916;2.926;2022-11-20T04:50:12;5.70;99.90
46319;DHT22;32042;50.916;2.926;2022-11-20T04:52:38;5.80;99.90
46319;DHT22;32042;50.916;2.926;2022-11-20T04:55:04;5.80;99.90
46319;DHT22;32042;50.916;2.926;2022-11-20T04:57:30;5.80;99.90
46319;DHT22;32042;50.916;2.926;2022-11-20T04:59:55;5.80;99.90
46319;DHT22;32042;50.916;2.926;2022-11-20T05:02:21;5.80;99.90
46319;DHT22;32042;50.916;2.926;2022-11-20T05:04:47;5.90;99.90
46319;DHT22;32042;50.916;2.926;2022-11-20T05:07:13;5.90;99.90
46319;DHT22;32042;50.916;2.926;2022-11-20T05:09:38;5.90;99.90
46319;DHT22;32042;50.916;2.926;2022-11-20T05:12:06;5.90;99.90
46319;DHT22;32042;50.916;2.926;2022-11-20T05:14:32;5.90;99.90
46319;DHT22;32042;50.916;2.926;2022-11-20T05:16:57;5.90;99.90
46319;DHT22;32042;50.916;2.926;2022-11-20T05:19:23;5.90;99.90
46319;DHT22;32042;50.916;2.926;2022-11-20T05:21:49;6.00;99.90
46319;DHT22;32042;50.916;2.926;2022-11-20T05:24:14;5.90;99.90
46319;DHT22;32042;50.916;2.926;2022-11-20T05:26:40;6.00;99.90
46319;DHT22;32042;50.916;2.926;2022-11-20T05:29:06;6.00;99.90
46319;DHT22;32042;50.916;2.926;2022-11-20T05:31:31;6.00;99.90
46319;DHT22;32042;50.916;2.926;2022-11-20T05:33:57;6.00;99.90
46319;DHT22;32042;50.916;2.926;2022-11-20T05:36:23;6.10;99.90
46319;DHT22;32042;50.916;2.926;2022-11-20T05:38:49;6.10;99.90
46319;DHT22;32042;50.916;2.926;2022-11-20T05:41:17;6.10;99.90
46319;DHT22;32042;50.916;2.926;2022-11-20T05:43:44;6.10;99.90
46319;DHT22;32042;50.916;2.926;2022-11-20T05:46:11;6.10;99.90
46319;DHT22;32042;50.916;2.926;2022-11-20T05:48:39;6.10;99.90
46319;DHT22;32042;50.916;2.926;2022-11-20T05:51:07;6.00;99.90
46319;DHT22;32042;50.916;2.926;2022-11-20T05:53:34;6.10;99.90
46319;DHT22;32042;50.916;2.926;2022-11-20T05:56:05;6.10;99.90
46319;DHT22;32042;50.916;2.926;2022-11-20T05:58:32;6.10;99.90
46319;DHT22;32042;50.916;2.926;2022-11-20T06:01:21;6.10;99.90
46319;DHT22;32042;50.916;2.926;2022-11-20T06:03:47;6.20;99.90
46319;DHT22;32042;50.916;2.926;2022-11-20T06:06:16;6.10;99.90
46319;DHT22;32042;50.916;2.926;2022-11-20T06:08:42;6.20;99.90
46319;DHT22;32042;50.916;2.926;2022-11-20T06:11:09;6.20;99.90
46319;DHT22;32042;50.916;2.926;2022-11-20T06:13:36;6.20;99.90
46319;DHT22;32042;50.916;2.926;2022-11-20T06:16:02;6.20;99.90
46319;DHT22;32042;50.916;2.926;2022-11-20T06:18:28;6.20;99.90
46319;DHT22;32042;50.916;2.926;2022-11-20T06:21:09;6.30;99.90
46319;DHT22;32042;50.916;2.926;2022-11-20T06:23:36;6.20;99.90
46319;DHT22;32042;50.916;2.926;2022-11-20T06:26:10;6.30;99.90
46319;DHT22;32042;50.916;2.926;2022-11-20T06:28:37;6.20;99.90
46319;DHT22;32042;50.916;2.926;2022-11-20T06:31:05;6.30;99.90
46319;DHT22;32042;50.916;2.926;2022-11-20T06:33:31;6.30;99.90
46319;DHT22;32042;50.916;2.926;2022-11-20T06:35:58;6.30;99.90
46319;DHT22;32042;50.916;2.926;2022-11-20T06:38:27;6.30;99.90
46319;DHT22;32042;50.916;2.926;2022-11-20T06:40:53;6.30;99.90
46319;DHT22;32042;50.916;2.926;2022-11-20T06:43:21;6.30;99.90
46319;DHT22;32042;50.916;2.926;2022-11-20T06:45:50;6.40;99.90
46319;DHT22;32042;50.916;2.926;2022-11-20T06:48:16;6.40;99.90
46319;DHT22;32042;50.916;2.926;2022-11-20T06:50:42;6.40;99.90
46319;DHT22;32042;50.916;2.926;2022-11-20T06:53:07;6.40;99.90
46319;DHT22;32042;50.916;2.926;2022-11-20T06:55:33;6.40;99.90
46319;DHT22;32042;50.916;2.926;2022-11-20T06:57:59;6.40;99.90
46319;DHT22;32042;50.916;2.926;2022-11-20T07:00:24;6.40;99.90
46319;DHT22;32042;50.916;2.926;2022-11-20T07:02:50;6.40;99.90
46319;DHT22;32042;50.916;2.926;2022-11-20T07:05:16;6.40;99.90
46319;DHT22;32042;50.916;2.926;2022-11-20T07:07:42;6.40;99.90
46319;DHT22;32042;50.916;2.926;2022-11-20T07:10:08;6.40;99.90
46319;DHT22;32042;50.916;2.926;2022-11-20T07:12:34;6.40;99.90
46319;DHT22;32042;50.916;2.926;2022-11-20T07:15:00;6.40;99.90
46319;DHT22;32042;50.916;2.926;2022-11-20T07:17:26;6.50;99.90
46319;DHT22;32042;50.916;2.926;2022-11-20T07:19:51;6.50;99.90
46319;DHT22;32042;50.916;2.926;2022-11-20T07:22:17;6.40;99.90
46319;DHT22;32042;50.916;2.926;2022-11-20T07:24:42;6.50;99.90
46319;DHT22;32042;50.916;2.926;2022-11-20T07:27:08;6.50;99.90
46319;DHT22;32042;50.916;2.926;2022-11-20T07:29:34;6.50;99.90
46319;DHT22;32042;50.916;2.926;2022-11-20T07:31:59;6.50;99.90
46319;DHT22;32042;50.916;2.926;2022-11-20T07:34:25;6.50;99.90
46319;DHT22;32042;50.916;2.926;2022-11-20T07:36:51;6.50;99.90
46319;DHT22;32042;50.916;2.926;2022-11-20T07:39:17;6.50;99.90
46319;DHT22;32042;50.916;2.926;2022-11-20T07:41:42;6.50;99.90
46319;DHT22;32042;50.916;2.926;2022-11-20T07:44:08;6.50;99.90
46319;DHT22;32042;50.916;2.926;2022-11-20T07:46:34;6.50;99.90
46319;DHT22;32042;50.916;2.926;2022-11-20T07:48:59;6.50;99.90
46319;DHT22;32042;50.916;2.926;2022-11-20T07:51:25;6.60;99.90
46319;DHT22;32042;50.916;2.926;2022-11-20T07:53:52;6.60;99.90
46319;DHT22;32042;50.916;2.926;2022-11-20T07:56:18;6.60;99.90
46319;DHT22;32042;50.916;2.926;2022-11-20T07:58:43;6.60;99.90
46319;DHT22;32042;50.916;2.926;2022-11-20T08:01:09;6.60;99.90
46319;DHT22;32042;50.916;2.926;2022-11-20T08:03:35;6.60;99.90
46319;DHT22;32042;50.916;2.926;2022-11-20T08:06:03;6.70;99.90
46319;DHT22;32042;50.916;2.926;2022-11-20T08:08:29;6.70;99.90
46319;DHT22;32042;50.916;2.926;2022-11-20T08:10:58;6.70;99.90
46319;DHT22;32042;50.916;2.926;2022-11-20T08:13:42;6.70;99.90
46319;DHT22;32042;50.916;2.926;2022-11-20T08:16:27;6.80;99.90
46319;DHT22;32042;50.916;2.926;2022-11-20T08:18:53;6.80;99.90
46319;DHT22;32042;50.916;2.926;2022-11-20T08:21:19;6.80;99.90
46319;DHT22;32042;50.916;2.926;2022-11-20T08:23:45;6.80;99.90
46319;DHT22;32042;50.916;2.926;2022-11-20T08:26:10;6.90;99.90
46319;DHT22;32042;50.916;2.926;2022-11-20T08:28:36;6.90;99.90
46319;DHT22;32042;50.916;2.926;2022-11-20T08:31:02;6.90;99.90
46319;DHT22;32042;50.916;2.926;2022-11-20T08:33:29;7.00;99.90
46319;DHT22;32042;50.916;2.926;2022-11-20T08:35:59;6.90;99.90
46319;DHT22;32042;50.916;2.926;2022-11-20T08:38:26;7.00;99.90
46319;DHT22;32042;50.916;2.926;2022-11-20T08:40:52;7.00;99.90
46319;DHT22;32042;50.916;2.926;2022-11-20T08:43:36;7.00;99.90
46319;DHT22;32042;50.916;2.926;2022-11-20T08:46:01;7.10;99.90
46319;DHT22;32042;50.916;2.926;2022-11-20T08:48:27;7.10;99.90
46319;DHT22;32042;50.916;2.926;2022-11-20T08:50:53;7.10;99.90
46319;DHT22;32042;50.916;2.926;2022-11-20T08:53:18;7.20;99.90
46319;DHT22;32042;50.916;2.926;2022-11-20T08:55:44;7.20;99.90
46319;DHT22;32042;50.916;2.926;2022-11-20T08:58:09;7.20;99.90
46319;DHT22;32042;50.916;2.926;2022-11-20T09:00:35;7.20;99.90
46319;DHT22;32042;50.916;2.926;2022-11-20T09:03:01;7.20;99.90
46319;DHT22;32042;50.916;2.926;2022-11-20T09:05:27;7.30;99.90
46319;DHT22;32042;50.916;2.926;2022-11-20T09:07:59;7.30;99.90
46319;DHT22;32042;50.916;2.926;2022-11-20T09:10:26;7.40;99.90
46319;DHT22;32042;50.916;2.926;2022-11-20T09:12:52;7.40;99.90
46319;DHT22;32042;50.916;2.926;2022-11-20T09:15:19;7.40;99.90
46319;DHT22;32042;50.916;2.926;2022-11-20T09:17:55;7.50;99.90
46319;DHT22;32042;50.916;2.926;2022-11-20T09:20:22;7.50;99.90
46319;DHT22;32042;50.916;2.926;2022-11-20T09:22:48;7.60;99.90
46319;DHT22;32042;50.916;2.926;2022-11-20T09:25:13;7.60;99.90
46319;DHT22;32042;50.916;2.926;2022-11-20T09:27:39;7.60;99.90
46319;DHT22;32042;50.916;2.926;2022-11-20T09:30:07;7.70;99.90
46319;DHT22;32042;50.916;2.926;2022-11-20T09:32:33;7.70;99.90
46319;DHT22;32042;50.916;2.926;2022-11-20T09:34:59;7.80;99.90
46319;DHT22;32042;50.916;2.926;2022-11-20T09:37:24;7.80;99.90
46319;DHT22;32042;50.916;2.926;2022-11-20T09:39:50;7.90;99.90
46319;DHT22;32042;50.916;2.926;2022-11-20T09:42:41;7.90;99.90
46319;DHT22;32042;50.916;2.926;2022-11-20T09:48:20;8.00;99.90
46319;DHT22;32042;50.916;2.926;2022-11-20T09:54:04;8.10;99.90
46319;DHT22;32042;50.916;2.926;2022-11-20T09:56:34;8.10;99.90
46319;DHT22;32042;50.916;2.926;2022-11-20T09:59:05;8.20;99.90
46319;DHT22;32042;50.916;2.926;2022-11-20T10:01:35;8.20;99.90
46319;DHT22;32042;50.916;2.926;2022-11-20T10:06:37;8.20;99.90
46319;DHT22;32042;50.916;2.926;2022-11-20T10:14:30;8.20;99.90
46319;DHT22;32042;50.916;2.926;2022-11-20T10:17:18;8.20;99.90
46319;DHT22;32042;50.916;2.926;2022-11-20T10:20:08;8.10;99.90
46319;DHT22;32042;50.916;2.926;2022-11-20T10:25:40;8.10;99.90
46319;DHT22;32042;50.916;2.926;2022-11-20T10:31:04;8.00;99.90
46319;DHT22;32042;50.916;2.926;2022-11-20T10:33:34;8.00;99.90
46319;DHT22;32042;50.916;2.926;2022-11-20T10:36:14;7.90;99.90
46319;DHT22;32042;50.916;2.926;2022-11-20T10:38:56;7.90;99.90
46319;DHT22;32042;50.916;2.926;2022-11-20T10:41:27;7.90;99.90
46319;DHT22;32042;50.916;2.926;2022-11-20T10:44:12;7.80;99.90
46319;DHT22;32042;50.916;2.926;2022-11-20T10:46:45;7.80;99.90
46319;DHT22;32042;50.916;2.926;2022-11-20T10:49:18;7.90;99.90
46319;DHT22;32042;50.916;2.926;2022-11-20T10:56:53;7.90;99.90
46319;DHT22;32042;50.916;2.926;2022-11-20T10:59:59;8.00;99.90
46319;DHT22;32042;50.916;2.926;2022-11-20T11:02:34;8.00;99.90
46319;DHT22;32042;50.916;2.926;2022-11-20T11:05:08;8.00;99.90
46319;DHT22;32042;50.916;2.926;2022-11-20T11:07:39;8.10;99.90
46319;DHT22;32042;50.916;2.926;2022-11-20T11:12:55;8.10;99.90
46319;DHT22;32042;50.916;2.926;2022-11-20T11:15:40;8.10;99.90
46319;DHT22;32042;50.916;2.926;2022-11-20T11:18:10;8.10;99.90
46319;DHT22;32042;50.916;2.926;2022-11-20T11:20:36;8.10;99.90
46319;DHT22;32042;50.916;2.926;2022-11-20T11:23:03;8.00;99.90
46319;DHT22;32042;50.916;2.926;2022-11-20T11:25:34;8.00;99.90
46319;DHT22;32042;50.916;2.926;2022-11-20T11:30:29;8.00;99.90
46319;DHT22;32042;50.916;2.926;2022-11-20T11:33:04;8.00;99.90
46319;DHT22;32042;50.916;2.926;2022-11-20T11:35:31;8.00;99.90
46319;DHT22;32042;50.916;2.926;2022-11-20T11:38:05;8.00;99.90
46319;DHT22;32042;50.916;2.926;2022-11-20T11:40:34;8.00;99.90
46319;DHT22;32042;50.916;2.926;2022-11-20T11:43:04;8.00;99.90
46319;DHT22;32042;50.916;2.926;2022-11-20T11:45:31;8.00;99.90
46319;DHT22;32042;50.916;2.926;2022-11-20T11:47:58;8.10;99.90
46319;DHT22;32042;50.916;2.926;2022-11-20T11:50:28;8.10;99.90
46319;DHT22;32042;50.916;2.926;2022-11-20T11:53:07;8.20;99.90
46319;DHT22;32042;50.916;2.926;2022-11-20T12:01:08;8.40;99.90
46319;DHT22;32042;50.916;2.926;2022-11-20T12:03:38;8.40;99.90
46319;DHT22;32042;50.916;2.926;2022-11-20T12:06:17;8.40;99.90
46319;DHT22;32042;50.916;2.926;2022-11-20T12:16:41;8.60;99.90
46319;DHT22;32042;50.916;2.926;2022-11-20T12:19:10;8.60;99.90
46319;DHT22;32042;50.916;2.926;2022-11-20T12:35:44;8.40;99.90
46319;DHT22;32042;50.916;2.926;2022-11-20T12:41:03;8.40;99.90
46319;DHT22;32042;50.916;2.926;2022-11-20T12:43:56;8.40;99.90
46319;DHT22;32042;50.916;2.926;2022-11-20T12:46:49;8.50;99.90
46319;DHT22;32042;50.916;2.926;2022-11-20T12:52:47;8.50;99.90
46319;DHT22;32042;50.916;2.926;2022-11-20T12:55:36;8.50;99.90
46319;DHT22;32042;50.916;2.926;2022-11-20T12:58:59;8.60;99.90
46319;DHT22;32042;50.916;2.926;2022-11-20T13:04:33;8.70;99.90
46319;DHT22;32042;50.916;2.926;2022-11-20T13:06:55;8.80;99.90
46319;DHT22;32042;50.916;2.926;2022-11-20T13:09:22;8.90;99.90
46319;DHT22;32042;50.916;2.926;2022-11-20T13:12:03;9.00;99.90
46319;DHT22;32042;50.916;2.926;2022-11-20T13:17:11;9.40;99.90
46319;DHT22;32042;50.916;2.926;2022-11-20T13:19:39;9.60;99.90
46319;DHT22;32042;50.916;2.926;2022-11-20T13:22:05;9.90;99.90
46319;DHT22;32042;50.916;2.926;2022-11-20T13:24:33;10.10;99.90
46319;DHT22;32042;50.916;2.926;2022-11-20T13:27:05;10.40;99.90
46319;DHT22;32042;50.916;2.926;2022-11-20T13:29:45;10.50;99.90
46319;DHT22;32042;50.916;2.926;2022-11-20T13:32:20;10.60;99.90
46319;DHT22;32042;50.916;2.926;2022-11-20T13:37:33;10.70;99.90
46319;DHT22;32042;50.916;2.926;2022-11-20T13:45:21;10.60;99.90
46319;DHT22;32042;50.916;2.926;2022-11-20T13:47:48;10.60;99.90
46319;DHT22;32042;50.916;2.926;2022-11-20T13:50:15;10.60;99.90
46319;DHT22;32042;50.916;2.926;2022-11-20T13:53:01;10.70;99.90
46319;DHT22;32042;50.916;2.926;2022-11-20T13:55:47;10.70;99.90
46319;DHT22;32042;50.916;2.926;2022-11-20T13:59:31;10.60;99.90
46319;DHT22;32042;50.916;2.926;2022-11-20T14:01:28;10.60;99.90
46319;DHT22;32042;50.916;2.926;2022-11-20T14:03:56;10.50;99.90
46319;DHT22;32042;50.916;2.926;2022-11-20T14:06:30;10.50;99.90
46319;DHT22;32042;50.916;2.926;2022-11-20T14:08:57;10.60;99.90
46319;DHT22;32042;50.916;2.926;2022-11-20T14:11:26;10.70;99.90
46319;DHT22;32042;50.916;2.926;2022-11-20T14:16:25;10.70;99.90
46319;DHT22;32042;50.916;2.926;2022-11-20T14:18:51;10.60;99.90
46319;DHT22;32042;50.916;2.926;2022-11-20T14:21:28;10.50;99.90
46319;DHT22;32042;50.916;2.926;2022-11-20T14:24:05;10.40;99.90
46319;DHT22;32042;50.916;2.926;2022-11-20T14:26:31;10.50;99.90
46319;DHT22;32042;50.916;2.926;2022-11-20T14:28:58;10.60;99.90
46319;DHT22;32042;50.916;2.926;2022-11-20T14:31:25;10.70;99.90
46319;DHT22;32042;50.916;2.926;2022-11-20T14:33:54;10.80;99.90
46319;DHT22;32042;50.916;2.926;2022-11-20T14:36:23;10.80;99.90
46319;DHT22;32042;50.916;2.926;2022-11-20T14:38:50;10.80;99.90
46319;DHT22;32042;50.916;2.926;2022-11-20T14:41:23;10.80;99.90
46319;DHT22;32042;50.916;2.926;2022-11-20T14:43:59;10.80;99.90
46319;DHT22;32042;50.916;2.926;2022-11-20T14:46:26;10.70;99.90
46319;DHT22;32042;50.916;2.926;2022-11-20T14:48:57;10.60;99.90
46319;DHT22;32042;50.916;2.926;2022-11-20T14:51:34;10.60;99.90
46319;DHT22;32042;50.916;2.926;2022-11-20T14:54:18;10.50;99.90
46319;DHT22;32042;50.916;2.926;2022-11-20T14:56:59;10.50;99.90
46319;DHT22;32042;50.916;2.926;2022-11-20T14:59:32;10.40;99.90
46319;DHT22;32042;50.916;2.926;2022-11-20T15:02:03;10.40;99.90
46319;DHT22;32042;50.916;2.926;2022-11-20T15:04:30;10.30;99.90
46319;DHT22;32042;50.916;2.926;2022-11-20T15:06:57;10.30;99.90
46319;DHT22;32042;50.916;2.926;2022-11-20T15:09:23;10.30;99.90
46319;DHT22;32042;50.916;2.926;2022-11-20T15:11:57;10.30;99.90
46319;DHT22;32042;50.916;2.926;2022-11-20T15:14:25;10.30;99.90
46319;DHT22;32042;50.916;2.926;2022-11-20T15:16:52;10.20;99.90
46319;DHT22;32042;50.916;2.926;2022-11-20T15:19:21;10.20;99.90
46319;DHT22;32042;50.916;2.926;2022-11-20T15:21:48;10.10;99.90
46319;DHT22;32042;50.916;2.926;2022-11-20T15:24:14;10.00;99.90
46319;DHT22;32042;50.916;2.926;2022-11-20T15:26:39;10.00;99.90
46319;DHT22;32042;50.916;2.926;2022-11-20T15:29:09;9.90;99.90
46319;DHT22;32042;50.916;2.926;2022-11-20T15:31:36;9.90;99.90
46319;DHT22;32042;50.916;2.926;2022-11-20T15:34:04;9.90;99.90
46319;DHT22;32042;50.916;2.926;2022-11-20T15:36:31;9.80;99.90
46319;DHT22;32042;50.916;2.926;2022-11-20T15:38:57;9.80;99.90
46319;DHT22;32042;50.916;2.926;2022-11-20T15:41:22;9.70;99.90
46319;DHT22;32042;50.916;2.926;2022-11-20T15:43:48;9.70;99.90
46319;DHT22;32042;50.916;2.926;2022-11-20T15:46:22;9.70;99.90
46319;DHT22;32042;50.916;2.926;2022-11-20T15:48:52;9.70;99.90
46319;DHT22;32042;50.916;2.926;2022-11-20T15:51:32;9.70;99.90
46319;DHT22;32042;50.916;2.926;2022-11-20T15:54:03;9.70;99.90
46319;DHT22;32042;50.916;2.926;2022-11-20T15:56:34;9.60;99.90
46319;DHT22;32042;50.916;2.926;2022-11-20T15:59:00;9.60;99.90
46319;DHT22;32042;50.916;2.926;2022-11-20T16:01:25;9.60;99.90
46319;DHT22;32042;50.916;2.926;2022-11-20T16:03:51;9.60;99.90
46319;DHT22;32042;50.916;2.926;2022-11-20T16:06:17;9.60;99.90
46319;DHT22;32042;50.916;2.926;2022-11-20T16:08:43;9.60;99.90
46319;DHT22;32042;50.916;2.926;2022-11-20T16:11:12;9.60;99.90
46319;DHT22;32042;50.916;2.926;2022-11-20T16:13:38;9.50;99.90
46319;DHT22;32042;50.916;2.926;2022-11-20T16:16:28;9.60;99.90
46319;DHT22;32042;50.916;2.926;2022-11-20T16:18:55;9.60;99.90
46319;DHT22;32042;50.916;2.926;2022-11-20T16:21:21;9.60;99.90
46319;DHT22;32042;50.916;2.926;2022-11-20T16:24:00;9.60;99.90
46319;DHT22;32042;50.916;2.926;2022-11-20T16:26:27;9.60;99.90
46319;DHT22;32042;50.916;2.926;2022-11-20T16:28:53;9.60;99.90
46319;DHT22;32042;50.916;2.926;2022-11-20T16:31:19;9.50;99.90
46319;DHT22;32042;50.916;2.926;2022-11-20T16:33:49;9.50;99.90
46319;DHT22;32042;50.916;2.926;2022-11-20T16:36:16;9.50;99.90
46319;DHT22;32042;50.916;2.926;2022-11-20T16:38:42;9.40;99.90
46319;DHT22;32042;50.916;2.926;2022-11-20T16:41:08;9.40;99.90
46319;DHT22;32042;50.916;2.926;2022-11-20T16:43:48;9.30;99.90
46319;DHT22;32042;50.916;2.926;2022-11-20T16:46:15;9.30;99.90
46319;DHT22;32042;50.916;2.926;2022-11-20T16:48:41;9.20;99.90
46319;DHT22;32042;50.916;2.926;2022-11-20T16:51:11;9.10;99.90
46319;DHT22;32042;50.916;2.926;2022-11-20T16:53:38;9.10;99.90
46319;DHT22;32042;50.916;2.926;2022-11-20T16:56:15;9.00;99.90
46319;DHT22;32042;50.916;2.926;2022-11-20T16:58:45;9.00;99.90
46319;DHT22;32042;50.916;2.926;2022-11-20T17:01:13;8.90;99.90
46319;DHT22;32042;50.916;2.926;2022-11-20T17:03:40;8.80;99.90
46319;DHT22;32042;50.916;2.926;2022-11-20T17:06:14;8.70;99.90
46319;DHT22;32042;50.916;2.926;2022-11-20T17:08:41;8.60;99.90
46319;DHT22;32042;50.916;2.926;2022-11-20T17:11:08;8.60;99.90
46319;DHT22;32042;50.916;2.926;2022-11-20T17:13:35;8.60;99.90
46319;DHT22;32042;50.916;2.926;2022-11-20T17:16:03;8.60;99.90
46319;DHT22;32042;50.916;2.926;2022-11-20T17:18:29;8.60;99.90
46319;DHT22;32042;50.916;2.926;2022-11-20T17:20:56;8.60;99.90